Weather History for Clovis, NM

Change the Weather History Date:

Wednesday, November 21, 2012

  Actual Average Record
Temperature  
Mean Temperature 53 °F -  
Max Temperature 73 °F 57 °F 77 °F (1921)
Min Temperature 33 °F 30 °F 8 °F (1929)
Degree Days  
Heating Degree Days 12    
Growing Degree Days 3 (Base 50)    
Moisture  
Dew Point 34 °F    
Average Humidity 48    
Maximum Humidity 76    
Minimum Humidity 35    
Precipitation  
Precipitation 0.00 in - - ()
Sea Level Pressure  
Sea Level Pressure 30.18 in    
Wind  
Wind Speed 11 mph (SW)    
Max Wind Speed 29 mph    
Max Gust Speed 34 mph    
Visibility 10 miles    
Events      
Averages and records for this station are not official NWS values.
T = Trace of Precipitation, MM = Missing Value Source: NWS Daily Summary

Daily Weather History Graph

Daily Weather History Graph

Search for Another Location

Airport:

Trip Planner

Search our weather history database for the weather conditions in past years. The results will help you decide how hot, cold, wet, or windy it might be!

Date:

Astronomy

Nov. 21, 2012 Rise Set
Actual Time 6:31 AM MST 4:44 PM MST
Civil Twilight 6:04 AM MST 5:11 PM MST
Nautical Twilight 5:34 AM MST 5:42 PM MST
Astronomical Twilight 5:04 AM MST 6:12 PM MST
Moon 12:48 PM MST (11/21) 12:08 AM MST (11/21)
Length of Visible Light 11h 06m
Length of Day
10h 12m
Waxing Gibbous, 62% of the Moon is Illuminated
Nov 21
Waxing Gibbous
Nov 28
Full
Dec 6
Last Quarter
Dec 13
New
Dec 19
First Quarter

Hourly Weather History & Observations

Time (MST) Temp. Windchill Dew Point Humidity Pressure Visibility Wind Dir Wind Speed Gust Speed Precip Events Conditions
12:15 AM 41.0 °F 35.8 °F 17.6 °F 39% 30.26 in 10.0 mi WSW 8.1 mph - N/A   Clear
12:35 AM 39.2 °F 35.0 °F 17.6 °F 42% 30.26 in 10.0 mi WSW 5.8 mph - N/A   Clear
12:55 AM 41.0 °F 35.2 °F 17.6 °F 39% 30.26 in 10.0 mi WSW 9.2 mph - N/A   Clear
1:15 AM 41.0 °F 34.7 °F 17.6 °F 39% 30.26 in 10.0 mi WSW 10.4 mph - N/A   Clear
1:35 AM 41.0 °F 35.8 °F 17.6 °F 39% 30.26 in 10.0 mi WSW 8.1 mph - N/A   Clear
1:55 AM 39.2 °F 35.0 °F 17.6 °F 42% 30.26 in 10.0 mi WSW 5.8 mph - N/A   Clear
2:15 AM 39.2 °F 35.0 °F 17.6 °F 42% 30.25 in 10.0 mi West 5.8 mph - N/A   Clear
2:35 AM 37.4 °F 32.8 °F 17.6 °F 45% 30.25 in 10.0 mi West 5.8 mph - N/A   Clear
2:55 AM 35.6 °F 29.2 °F 17.6 °F 48% 30.25 in 10.0 mi West 8.1 mph - N/A   Clear
3:15 AM 35.6 °F 29.2 °F 17.6 °F 48% 30.25 in 10.0 mi West 8.1 mph - N/A   Clear
3:35 AM 35.6 °F 29.9 °F 17.6 °F 48% 30.25 in 10.0 mi WNW 6.9 mph - N/A   Clear
3:55 AM 35.6 °F 29.9 °F 15.8 °F 44% 30.24 in 10.0 mi WNW 6.9 mph - N/A   Clear
4:15 AM 35.6 °F 30.7 °F 15.8 °F 44% 30.25 in 10.0 mi WNW 5.8 mph - N/A   Clear
4:35 AM 35.6 °F 31.7 °F 17.6 °F 48% 30.24 in 10.0 mi West 4.6 mph - N/A   Clear
4:55 AM 35.6 °F 30.7 °F 17.6 °F 48% 30.24 in 10.0 mi West 5.8 mph - N/A   Clear
5:15 AM 33.8 °F 27.7 °F 17.6 °F 52% 30.24 in 10.0 mi WSW 6.9 mph - N/A   Clear
5:35 AM 33.8 °F 27.7 °F 17.6 °F 52% 30.24 in 10.0 mi WSW 6.9 mph - N/A   Clear
5:55 AM 35.6 °F 29.2 °F 19.4 °F 52% 30.25 in 10.0 mi West 8.1 mph - N/A   Clear
6:15 AM 37.4 °F 32.8 °F 19.4 °F 48% 30.25 in 10.0 mi West 5.8 mph - N/A   Clear
6:35 AM 37.4 °F 32.8 °F 19.4 °F 48% 30.25 in 10.0 mi West 5.8 mph - N/A   Clear
6:55 AM 39.2 °F 35.0 °F 21.2 °F 49% 30.25 in 10.0 mi WSW 5.8 mph - N/A   Clear
7:15 AM 42.8 °F 38.6 °F 21.2 °F 42% 30.25 in 10.0 mi West 6.9 mph - N/A   Clear
7:35 AM 44.6 °F 41.4 °F 21.2 °F 39% 30.25 in 10.0 mi WSW 5.8 mph - N/A   Clear
7:55 AM 48.2 °F - 24.8 °F 40% 30.25 in 10.0 mi SW 5.8 mph - N/A   Clear
8:15 AM 48.2 °F - 24.8 °F 40% 30.26 in 10.0 mi SW 6.9 mph - N/A   Clear
8:35 AM 51.8 °F - 26.6 °F 38% 30.26 in 10.0 mi SW 6.9 mph - N/A   Clear
8:55 AM 53.6 °F - 28.4 °F 38% 30.26 in 10.0 mi SW 9.2 mph - N/A   Clear
9:15 AM 57.2 °F - 33.8 °F 41% 30.25 in 10.0 mi SSW 11.5 mph - N/A   Clear
9:35 AM 57.2 °F - 33.8 °F 41% 30.25 in 10.0 mi SW 11.5 mph - N/A   Clear
9:55 AM 62.6 °F - 39.2 °F 42% 30.25 in 10.0 mi SSW 16.1 mph - N/A   Clear
10:15 AM 64.4 °F - 39.2 °F 40% 30.24 in 10.0 mi SSW 18.4 mph - N/A   Clear
10:35 AM 64.4 °F - 39.2 °F 40% 30.23 in 10.0 mi SSW 17.3 mph - N/A   Clear
10:55 AM 66.2 °F - 41.0 °F 40% 30.22 in 10.0 mi SSW 21.9 mph 26.5 mph N/A   Clear
11:15 AM 69.8 °F - 42.8 °F 38% 30.21 in 10.0 mi SSW 21.9 mph 29.9 mph N/A   Clear
11:35 AM 69.8 °F - 42.8 °F 38% 30.20 in 10.0 mi SSW 28.8 mph 34.5 mph N/A   Clear
11:55 AM 71.6 °F - 42.8 °F 35% 30.19 in 10.0 mi SSW 28.8 mph 34.5 mph N/A   Clear
12:15 PM 69.8 °F - 42.8 °F 38% 30.17 in 10.0 mi SSW 21.9 mph - N/A   Clear
12:35 PM 71.6 °F - 44.6 °F 38% 30.16 in 10.0 mi SSW 20.7 mph 29.9 mph N/A   Clear
12:55 PM 69.8 °F - 44.6 °F 40% 30.15 in 10.0 mi SW 25.3 mph - N/A   Clear
1:15 PM 69.8 °F - 44.6 °F 40% 30.14 in 10.0 mi SSW 24.2 mph - N/A   Clear
1:35 PM 69.8 °F - 44.6 °F 40% 30.14 in 10.0 mi SSW 19.6 mph 26.5 mph N/A   Clear
1:55 PM 69.8 °F - 46.4 °F 43% 30.13 in 10.0 mi SSW 18.4 mph 23.0 mph N/A   Clear
2:15 PM 71.6 °F - 46.4 °F 41% 30.12 in 10.0 mi SSW 15.0 mph - N/A   Clear
2:35 PM 73.4 °F - 46.4 °F 38% 30.11 in 10.0 mi SW 21.9 mph 25.3 mph N/A   Clear
2:55 PM 71.6 °F - 44.6 °F 38% 30.11 in 10.0 mi SSW 21.9 mph 27.6 mph N/A   Partly Cloudy
3:15 PM 71.6 °F - 44.6 °F 38% 30.11 in 10.0 mi SSW 23.0 mph 26.5 mph N/A   Clear
3:35 PM 69.8 °F - 44.6 °F 40% 30.11 in 10.0 mi SSW 16.1 mph - N/A   Clear
3:55 PM 69.8 °F - 44.6 °F 40% 30.11 in 10.0 mi SSW 20.7 mph 27.6 mph N/A   Clear
4:15 PM 66.2 °F - 42.8 °F 43% 30.11 in 10.0 mi SSW 13.8 mph - N/A   Clear
4:35 PM 66.2 °F - 42.8 °F 43% 30.11 in 10.0 mi South 13.8 mph - N/A   Mostly Cloudy
4:55 PM 64.4 °F - 41.0 °F 42% 30.11 in 10.0 mi SSW 12.7 mph - N/A   Mostly Cloudy
5:15 PM 62.6 °F - 41.0 °F 45% 30.12 in 10.0 mi South 10.4 mph - N/A   Partly Cloudy
5:35 PM 60.8 °F - 41.0 °F 48% 30.12 in 10.0 mi SSW 11.5 mph - N/A   Clear
5:55 PM 62.6 °F - 42.8 °F 48% 30.13 in 10.0 mi SSW 13.8 mph - N/A   Scattered Clouds
6:15 PM 62.6 °F - 42.8 °F 48% 30.13 in 10.0 mi SSW 12.7 mph - N/A   Scattered Clouds
6:35 PM 60.8 °F - 42.8 °F 52% 30.13 in 10.0 mi SSW 15.0 mph - N/A   Partly Cloudy
6:55 PM 60.8 °F - 44.6 °F 55% 30.13 in 10.0 mi SW 17.3 mph - N/A   Clear
7:15 PM 60.8 °F - 44.6 °F 55% 30.12 in 10.0 mi WSW 15.0 mph - N/A   Clear
7:35 PM 57.2 °F - 42.8 °F 59% 30.12 in 10.0 mi SW 9.2 mph - N/A   Clear
7:55 PM 55.4 °F - 42.8 °F 63% 30.11 in 10.0 mi SW 11.5 mph - N/A   Clear
8:15 PM 53.6 °F - 42.8 °F 67% 30.11 in 10.0 mi SSW 8.1 mph - N/A   Clear
8:35 PM 51.8 °F - 39.2 °F 62% 30.10 in 10.0 mi South 9.2 mph - N/A   Clear
8:55 PM 51.8 °F - 41.0 °F 67% 30.10 in 10.0 mi SSW 10.4 mph - N/A   Scattered Clouds
9:15 PM 51.8 °F - 42.8 °F 71% 30.10 in 10.0 mi SW 10.4 mph - N/A   Scattered Clouds
9:35 PM 51.8 °F - 42.8 °F 71% 30.09 in 10.0 mi SSW 10.4 mph - N/A   Partly Cloudy
9:55 PM 51.8 °F - 42.8 °F 71% 30.09 in 10.0 mi SSW 10.4 mph - N/A   Clear
10:15 PM 51.8 °F - 42.8 °F 71% 30.09 in 10.0 mi SW 10.4 mph - N/A   Clear
10:35 PM 51.8 °F - 42.8 °F 71% 30.09 in 10.0 mi SW 10.4 mph - N/A   Clear
10:55 PM 50.0 °F - 42.8 °F 76% 30.09 in 10.0 mi SW 10.4 mph - N/A   Clear
11:15 PM 50.0 °F - 42.8 °F 76% 30.09 in 10.0 mi WSW 9.2 mph - N/A   Clear
11:35 PM 48.2 °F - 41.0 °F 76% 30.08 in 10.0 mi WSW 9.2 mph - N/A   Clear
11:55 PM 50.0 °F - 41.0 °F 71% 30.07 in 10.0 mi WSW 10.4 mph - N/A   Clear